sensor_id;sensor_type;location;lat;lon;timestamp;P1;durP1;ratioP1;P2;durP2;ratioP2
57337;SDS011;43173;50.980;18.204;2023-09-19T00:01:40;20.00;;;16.00;;
57337;SDS011;43173;50.980;18.204;2023-09-19T00:04:09;21.00;;;16.60;;
57337;SDS011;43173;50.980;18.204;2023-09-19T00:06:40;20.00;;;15.80;;
57337;SDS011;43173;50.980;18.204;2023-09-19T00:09:06;21.10;;;15.90;;
57337;SDS011;43173;50.980;18.204;2023-09-19T00:11:38;22.60;;;16.40;;
57337;SDS011;43173;50.980;18.204;2023-09-19T00:14:04;18.60;;;15.30;;
57337;SDS011;43173;50.980;18.204;2023-09-19T00:16:34;20.60;;;16.20;;
57337;SDS011;43173;50.980;18.204;2023-09-19T00:19:00;24.80;;;16.00;;
57337;SDS011;43173;50.980;18.204;2023-09-19T00:21:26;20.90;;;15.70;;
57337;SDS011;43173;50.980;18.204;2023-09-19T00:23:51;24.80;;;16.40;;
57337;SDS011;43173;50.980;18.204;2023-09-19T00:26:17;22.10;;;16.20;;
57337;SDS011;43173;50.980;18.204;2023-09-19T00:28:43;19.80;;;14.80;;
57337;SDS011;43173;50.980;18.204;2023-09-19T00:31:09;20.80;;;16.90;;
57337;SDS011;43173;50.980;18.204;2023-09-19T00:33:34;21.00;;;16.50;;
57337;SDS011;43173;50.980;18.204;2023-09-19T00:36:00;18.80;;;16.00;;
57337;SDS011;43173;50.980;18.204;2023-09-19T00:38:29;21.30;;;16.80;;
57337;SDS011;43173;50.980;18.204;2023-09-19T00:40:55;21.30;;;15.80;;
57337;SDS011;43173;50.980;18.204;2023-09-19T00:43:22;23.60;;;16.90;;
57337;SDS011;43173;50.980;18.204;2023-09-19T00:45:50;22.10;;;16.60;;
57337;SDS011;43173;50.980;18.204;2023-09-19T00:48:21;23.10;;;15.20;;
57337;SDS011;43173;50.980;18.204;2023-09-19T00:50:48;22.20;;;16.60;;
57337;SDS011;43173;50.980;18.204;2023-09-19T00:53:16;19.30;;;15.40;;
57337;SDS011;43173;50.980;18.204;2023-09-19T00:55:44;20.80;;;16.30;;
57337;SDS011;43173;50.980;18.204;2023-09-19T00:58:11;19.30;;;15.40;;
57337;SDS011;43173;50.980;18.204;2023-09-19T01:00:37;19.90;;;15.90;;
57337;SDS011;43173;50.980;18.204;2023-09-19T01:03:03;19.50;;;16.20;;
57337;SDS011;43173;50.980;18.204;2023-09-19T01:05:29;19.60;;;15.10;;
57337;SDS011;43173;50.980;18.204;2023-09-19T01:07:55;17.90;;;15.50;;
57337;SDS011;43173;50.980;18.204;2023-09-19T01:10:21;20.80;;;16.30;;
57337;SDS011;43173;50.980;18.204;2023-09-19T01:26:46;18.20;;;15.20;;
57337;SDS011;43173;50.980;18.204;2023-09-19T01:32:06;20.50;;;15.60;;
57337;SDS011;43173;50.980;18.204;2023-09-19T01:37:19;19.20;;;15.30;;
57337;SDS011;43173;50.980;18.204;2023-09-19T01:42:21;23.80;;;16.50;;
57337;SDS011;43173;50.980;18.204;2023-09-19T01:50:29;23.60;;;17.80;;
57337;SDS011;43173;50.980;18.204;2023-09-19T01:52:59;21.50;;;18.10;;
57337;SDS011;43173;50.980;18.204;2023-09-19T01:55:29;22.40;;;18.50;;
57337;SDS011;43173;50.980;18.204;2023-09-19T02:00:53;26.50;;;18.00;;
57337;SDS011;43173;50.980;18.204;2023-09-19T02:03:20;23.50;;;17.70;;
57337;SDS011;43173;50.980;18.204;2023-09-19T02:05:50;24.90;;;19.90;;
57337;SDS011;43173;50.980;18.204;2023-09-19T02:08:17;25.80;;;19.20;;
57337;SDS011;43173;50.980;18.204;2023-09-19T02:10:44;25.50;;;19.60;;
57337;SDS011;43173;50.980;18.204;2023-09-19T02:13:17;24.30;;;18.80;;
57337;SDS011;43173;50.980;18.204;2023-09-19T02:15:46;24.20;;;19.50;;
57337;SDS011;43173;50.980;18.204;2023-09-19T02:18:12;27.30;;;20.20;;
57337;SDS011;43173;50.980;18.204;2023-09-19T02:20:39;26.10;;;19.80;;
57337;SDS011;43173;50.980;18.204;2023-09-19T02:23:04;31.20;;;20.70;;
57337;SDS011;43173;50.980;18.204;2023-09-19T02:25:31;22.20;;;17.60;;
57337;SDS011;43173;50.980;18.204;2023-09-19T02:27:57;22.50;;;18.00;;
57337;SDS011;43173;50.980;18.204;2023-09-19T02:30:29;21.60;;;17.80;;
57337;SDS011;43173;50.980;18.204;2023-09-19T02:32:54;21.40;;;17.80;;
57337;SDS011;43173;50.980;18.204;2023-09-19T02:35:20;22.30;;;18.50;;
57337;SDS011;43173;50.980;18.204;2023-09-19T02:37:46;25.30;;;19.80;;
57337;SDS011;43173;50.980;18.204;2023-09-19T02:40:12;23.90;;;19.70;;
57337;SDS011;43173;50.980;18.204;2023-09-19T02:42:47;25.10;;;18.20;;
57337;SDS011;43173;50.980;18.204;2023-09-19T02:45:15;24.10;;;19.00;;
57337;SDS011;43173;50.980;18.204;2023-09-19T02:47:43;22.50;;;17.90;;
57337;SDS011;43173;50.980;18.204;2023-09-19T02:50:10;22.30;;;18.70;;
57337;SDS011;43173;50.980;18.204;2023-09-19T02:55:08;23.50;;;17.40;;
57337;SDS011;43173;50.980;18.204;2023-09-19T02:57:37;24.70;;;19.00;;
57337;SDS011;43173;50.980;18.204;2023-09-19T03:00:08;26.30;;;18.80;;
57337;SDS011;43173;50.980;18.204;2023-09-19T03:02:37;25.10;;;19.50;;
57337;SDS011;43173;50.980;18.204;2023-09-19T03:05:05;26.20;;;18.70;;
57337;SDS011;43173;50.980;18.204;2023-09-19T03:07:31;27.20;;;20.50;;
57337;SDS011;43173;50.980;18.204;2023-09-19T03:09:56;24.50;;;19.20;;
57337;SDS011;43173;50.980;18.204;2023-09-19T03:12:22;26.10;;;20.40;;
57337;SDS011;43173;50.980;18.204;2023-09-19T03:14:48;23.60;;;19.30;;
57337;SDS011;43173;50.980;18.204;2023-09-19T03:17:13;23.90;;;17.90;;
57337;SDS011;43173;50.980;18.204;2023-09-19T03:19:40;28.60;;;21.30;;
57337;SDS011;43173;50.980;18.204;2023-09-19T03:22:05;27.80;;;20.80;;
57337;SDS011;43173;50.980;18.204;2023-09-19T03:24:31;26.50;;;20.40;;
57337;SDS011;43173;50.980;18.204;2023-09-19T03:26:58;30.10;;;22.20;;
57337;SDS011;43173;50.980;18.204;2023-09-19T03:29:24;23.10;;;18.50;;
57337;SDS011;43173;50.980;18.204;2023-09-19T03:31:50;22.10;;;16.00;;
57337;SDS011;43173;50.980;18.204;2023-09-19T03:34:16;21.80;;;14.70;;
57337;SDS011;43173;50.980;18.204;2023-09-19T03:36:42;19.90;;;16.80;;
57337;SDS011;43173;50.980;18.204;2023-09-19T03:39:07;20.50;;;15.90;;
57337;SDS011;43173;50.980;18.204;2023-09-19T03:41:33;17.30;;;13.70;;
57337;SDS011;43173;50.980;18.204;2023-09-19T03:44:01;18.00;;;13.30;;
57337;SDS011;43173;50.980;18.204;2023-09-19T03:46:28;19.50;;;14.90;;
57337;SDS011;43173;50.980;18.204;2023-09-19T03:48:54;18.60;;;14.00;;
57337;SDS011;43173;50.980;18.204;2023-09-19T03:51:20;22.10;;;13.80;;
57337;SDS011;43173;50.980;18.204;2023-09-19T03:53:47;19.20;;;13.60;;
57337;SDS011;43173;50.980;18.204;2023-09-19T03:56:14;16.60;;;12.50;;
57337;SDS011;43173;50.980;18.204;2023-09-19T03:58:40;15.80;;;12.70;;
57337;SDS011;43173;50.980;18.204;2023-09-19T04:01:06;13.50;;;11.00;;
57337;SDS011;43173;50.980;18.204;2023-09-19T04:03:32;14.20;;;9.60;;
57337;SDS011;43173;50.980;18.204;2023-09-19T04:06:14;14.90;;;10.50;;
57337;SDS011;43173;50.980;18.204;2023-09-19T04:08:41;13.90;;;9.40;;
57337;SDS011;43173;50.980;18.204;2023-09-19T04:11:07;14.50;;;9.30;;
57337;SDS011;43173;50.980;18.204;2023-09-19T04:13:32;12.00;;;7.90;;
57337;SDS011;43173;50.980;18.204;2023-09-19T04:15:58;10.00;;;6.90;;
57337;SDS011;43173;50.980;18.204;2023-09-19T04:18:23;14.60;;;7.20;;
57337;SDS011;43173;50.980;18.204;2023-09-19T04:20:49;10.60;;;6.90;;
57337;SDS011;43173;50.980;18.204;2023-09-19T04:23:15;9.50;;;6.40;;
57337;SDS011;43173;50.980;18.204;2023-09-19T04:25:42;10.60;;;6.60;;
57337;SDS011;43173;50.980;18.204;2023-09-19T04:28:09;10.00;;;6.50;;
57337;SDS011;43173;50.980;18.204;2023-09-19T04:30:38;10.10;;;6.60;;
57337;SDS011;43173;50.980;18.204;2023-09-19T04:33:05;10.70;;;6.80;;
57337;SDS011;43173;50.980;18.204;2023-09-19T04:35:31;10.00;;;6.20;;
57337;SDS011;43173;50.980;18.204;2023-09-19T04:37:58;10.30;;;6.30;;
57337;SDS011;43173;50.980;18.204;2023-09-19T04:40:23;12.50;;;6.40;;
57337;SDS011;43173;50.980;18.204;2023-09-19T04:42:54;13.00;;;5.80;;
57337;SDS011;43173;50.980;18.204;2023-09-19T04:45:23;9.10;;;6.00;;
57337;SDS011;43173;50.980;18.204;2023-09-19T04:47:52;12.50;;;5.40;;
57337;SDS011;43173;50.980;18.204;2023-09-19T04:50:18;9.90;;;5.70;;
57337;SDS011;43173;50.980;18.204;2023-09-19T04:52:49;9.50;;;5.00;;
57337;SDS011;43173;50.980;18.204;2023-09-19T04:55:16;11.40;;;5.70;;
57337;SDS011;43173;50.980;18.204;2023-09-19T04:57:47;9.80;;;5.60;;
57337;SDS011;43173;50.980;18.204;2023-09-19T05:00:14;12.40;;;5.50;;
57337;SDS011;43173;50.980;18.204;2023-09-19T05:02:42;8.30;;;5.60;;
57337;SDS011;43173;50.980;18.204;2023-09-19T05:05:09;8.90;;;5.20;;
57337;SDS011;43173;50.980;18.204;2023-09-19T05:07:40;9.20;;;5.70;;
57337;SDS011;43173;50.980;18.204;2023-09-19T05:10:06;10.00;;;5.40;;
57337;SDS011;43173;50.980;18.204;2023-09-19T05:12:33;7.50;;;5.30;;
57337;SDS011;43173;50.980;18.204;2023-09-19T05:15:00;9.20;;;5.20;;
57337;SDS011;43173;50.980;18.204;2023-09-19T05:17:26;9.90;;;4.90;;
57337;SDS011;43173;50.980;18.204;2023-09-19T05:19:52;6.70;;;4.40;;
57337;SDS011;43173;50.980;18.204;2023-09-19T05:22:18;7.40;;;4.10;;
57337;SDS011;43173;50.980;18.204;2023-09-19T05:24:44;6.90;;;4.40;;
57337;SDS011;43173;50.980;18.204;2023-09-19T05:27:14;6.80;;;3.90;;
57337;SDS011;43173;50.980;18.204;2023-09-19T05:29:45;7.90;;;3.80;;
57337;SDS011;43173;50.980;18.204;2023-09-19T05:32:11;7.40;;;4.20;;
57337;SDS011;43173;50.980;18.204;2023-09-19T05:34:37;8.10;;;4.50;;
57337;SDS011;43173;50.980;18.204;2023-09-19T05:37:04;9.70;;;4.50;;
57337;SDS011;43173;50.980;18.204;2023-09-19T05:39:33;10.80;;;4.20;;
57337;SDS011;43173;50.980;18.204;2023-09-19T05:41:59;8.20;;;3.60;;
57337;SDS011;43173;50.980;18.204;2023-09-19T05:44:28;6.50;;;3.50;;
57337;SDS011;43173;50.980;18.204;2023-09-19T05:46:54;9.00;;;3.50;;
57337;SDS011;43173;50.980;18.204;2023-09-19T05:49:22;6.60;;;2.80;;
57337;SDS011;43173;50.980;18.204;2023-09-19T05:51:50;6.00;;;2.90;;
57337;SDS011;43173;50.980;18.204;2023-09-19T05:54:19;5.70;;;3.00;;
57337;SDS011;43173;50.980;18.204;2023-09-19T05:56:45;5.90;;;2.70;;
57337;SDS011;43173;50.980;18.204;2023-09-19T05:59:12;5.60;;;3.50;;
57337;SDS011;43173;50.980;18.204;2023-09-19T06:01:42;6.40;;;3.10;;
57337;SDS011;43173;50.980;18.204;2023-09-19T06:04:08;6.40;;;3.00;;
57337;SDS011;43173;50.980;18.204;2023-09-19T06:06:33;7.60;;;3.70;;
57337;SDS011;43173;50.980;18.204;2023-09-19T06:09:04;12.20;;;6.70;;
57337;SDS011;43173;50.980;18.204;2023-09-19T06:11:34;12.60;;;8.70;;
57337;SDS011;43173;50.980;18.204;2023-09-19T06:14:01;15.20;;;11.10;;
57337;SDS011;43173;50.980;18.204;2023-09-19T06:16:28;16.60;;;11.20;;
57337;SDS011;43173;50.980;18.204;2023-09-19T06:18:54;17.70;;;10.80;;
57337;SDS011;43173;50.980;18.204;2023-09-19T06:21:21;19.60;;;13.50;;
57337;SDS011;43173;50.980;18.204;2023-09-19T06:23:50;18.40;;;9.80;;
57337;SDS011;43173;50.980;18.204;2023-09-19T06:26:16;13.70;;;8.80;;
57337;SDS011;43173;50.980;18.204;2023-09-19T06:28:42;11.10;;;6.10;;
57337;SDS011;43173;50.980;18.204;2023-09-19T06:31:09;8.20;;;5.30;;
57337;SDS011;43173;50.980;18.204;2023-09-19T06:33:36;9.50;;;4.20;;
57337;SDS011;43173;50.980;18.204;2023-09-19T06:36:06;7.70;;;4.50;;
57337;SDS011;43173;50.980;18.204;2023-09-19T06:38:32;9.80;;;4.20;;
57337;SDS011;43173;50.980;18.204;2023-09-19T06:40:59;9.20;;;4.00;;
57337;SDS011;43173;50.980;18.204;2023-09-19T06:43:35;5.70;;;3.60;;
57337;SDS011;43173;50.980;18.204;2023-09-19T06:46:01;13.20;;;3.60;;
57337;SDS011;43173;50.980;18.204;2023-09-19T06:48:28;6.20;;;3.40;;
57337;SDS011;43173;50.980;18.204;2023-09-19T06:50:57;6.50;;;3.30;;
57337;SDS011;43173;50.980;18.204;2023-09-19T06:53:31;8.10;;;3.10;;
57337;SDS011;43173;50.980;18.204;2023-09-19T06:55:57;10.60;;;3.30;;
57337;SDS011;43173;50.980;18.204;2023-09-19T06:58:23;6.20;;;2.50;;
57337;SDS011;43173;50.980;18.204;2023-09-19T07:00:49;6.10;;;3.00;;
57337;SDS011;43173;50.980;18.204;2023-09-19T07:03:17;7.80;;;2.90;;
57337;SDS011;43173;50.980;18.204;2023-09-19T07:05:46;4.80;;;2.60;;
57337;SDS011;43173;50.980;18.204;2023-09-19T07:08:13;6.00;;;2.60;;
57337;SDS011;43173;50.980;18.204;2023-09-19T07:10:39;3.00;;;1.90;;
57337;SDS011;43173;50.980;18.204;2023-09-19T07:13:21;5.80;;;2.20;;
57337;SDS011;43173;50.980;18.204;2023-09-19T07:15:47;3.30;;;2.00;;
57337;SDS011;43173;50.980;18.204;2023-09-19T07:18:13;4.90;;;2.00;;
57337;SDS011;43173;50.980;18.204;2023-09-19T07:20:40;5.40;;;1.90;;
57337;SDS011;43173;50.980;18.204;2023-09-19T07:23:11;3.80;;;1.70;;
57337;SDS011;43173;50.980;18.204;2023-09-19T07:25:39;4.00;;;1.80;;
57337;SDS011;43173;50.980;18.204;2023-09-19T07:28:05;7.50;;;2.20;;
57337;SDS011;43173;50.980;18.204;2023-09-19T07:30:31;3.90;;;1.90;;
57337;SDS011;43173;50.980;18.204;2023-09-19T07:32:57;5.20;;;2.30;;
57337;SDS011;43173;50.980;18.204;2023-09-19T07:35:23;3.90;;;1.90;;
57337;SDS011;43173;50.980;18.204;2023-09-19T07:37:49;8.40;;;2.60;;
57337;SDS011;43173;50.980;18.204;2023-09-19T07:40:16;2.60;;;1.80;;
57337;SDS011;43173;50.980;18.204;2023-09-19T07:42:41;5.00;;;1.90;;
57337;SDS011;43173;50.980;18.204;2023-09-19T07:45:09;4.50;;;1.90;;
57337;SDS011;43173;50.980;18.204;2023-09-19T07:47:46;4.80;;;1.70;;
57337;SDS011;43173;50.980;18.204;2023-09-19T07:50:14;5.10;;;1.50;;
57337;SDS011;43173;50.980;18.204;2023-09-19T07:52:46;5.40;;;1.90;;
57337;SDS011;43173;50.980;18.204;2023-09-19T07:55:12;2.90;;;1.70;;
57337;SDS011;43173;50.980;18.204;2023-09-19T07:57:43;4.00;;;1.90;;
57337;SDS011;43173;50.980;18.204;2023-09-19T08:00:09;3.50;;;1.70;;
57337;SDS011;43173;50.980;18.204;2023-09-19T08:02:36;3.70;;;1.90;;
57337;SDS011;43173;50.980;18.204;2023-09-19T08:05:08;4.40;;;2.60;;
57337;SDS011;43173;50.980;18.204;2023-09-19T08:07:41;5.30;;;1.90;;
57337;SDS011;43173;50.980;18.204;2023-09-19T08:10:09;4.00;;;1.80;;
57337;SDS011;43173;50.980;18.204;2023-09-19T08:12:42;4.20;;;1.90;;
57337;SDS011;43173;50.980;18.204;2023-09-19T08:15:15;4.10;;;2.00;;
57337;SDS011;43173;50.980;18.204;2023-09-19T08:17:42;4.00;;;2.00;;
57337;SDS011;43173;50.980;18.204;2023-09-19T08:20:08;2.70;;;1.70;;
57337;SDS011;43173;50.980;18.204;2023-09-19T08:22:43;3.90;;;2.10;;
57337;SDS011;43173;50.980;18.204;2023-09-19T08:25:13;3.50;;;1.80;;
57337;SDS011;43173;50.980;18.204;2023-09-19T08:27:43;3.10;;;2.00;;
57337;SDS011;43173;50.980;18.204;2023-09-19T08:30:13;5.40;;;1.90;;
57337;SDS011;43173;50.980;18.204;2023-09-19T08:32:43;5.50;;;2.70;;
57337;SDS011;43173;50.980;18.204;2023-09-19T08:35:12;4.10;;;2.50;;
57337;SDS011;43173;50.980;18.204;2023-09-19T08:37:37;3.80;;;2.80;;
57337;SDS011;43173;50.980;18.204;2023-09-19T08:40:03;3.60;;;2.40;;
57337;SDS011;43173;50.980;18.204;2023-09-19T08:42:31;4.20;;;2.30;;
57337;SDS011;43173;50.980;18.204;2023-09-19T08:44:57;3.30;;;1.90;;
57337;SDS011;43173;50.980;18.204;2023-09-19T08:47:33;4.90;;;1.90;;
57337;SDS011;43173;50.980;18.204;2023-09-19T08:52:44;3.20;;;1.80;;
57337;SDS011;43173;50.980;18.204;2023-09-19T08:55:12;6.80;;;2.10;;
57337;SDS011;43173;50.980;18.204;2023-09-19T08:57:46;3.00;;;1.60;;
57337;SDS011;43173;50.980;18.204;2023-09-19T09:00:14;5.10;;;2.10;;
57337;SDS011;43173;50.980;18.204;2023-09-19T09:02:43;2.80;;;1.90;;
57337;SDS011;43173;50.980;18.204;2023-09-19T09:05:10;4.50;;;2.10;;
57337;SDS011;43173;50.980;18.204;2023-09-19T09:07:42;2.80;;;1.90;;
57337;SDS011;43173;50.980;18.204;2023-09-19T09:10:09;6.10;;;2.60;;
57337;SDS011;43173;50.980;18.204;2023-09-19T09:12:35;3.60;;;2.10;;
57337;SDS011;43173;50.980;18.204;2023-09-19T09:15:06;4.70;;;2.30;;
57337;SDS011;43173;50.980;18.204;2023-09-19T09:17:34;5.10;;;2.20;;
57337;SDS011;43173;50.980;18.204;2023-09-19T09:20:00;5.10;;;2.40;;
57337;SDS011;43173;50.980;18.204;2023-09-19T09:22:25;4.90;;;2.50;;
57337;SDS011;43173;50.980;18.204;2023-09-19T09:24:55;4.90;;;2.30;;
57337;SDS011;43173;50.980;18.204;2023-09-19T09:27:29;4.90;;;2.20;;
57337;SDS011;43173;50.980;18.204;2023-09-19T09:29:55;4.30;;;2.40;;
57337;SDS011;43173;50.980;18.204;2023-09-19T09:32:25;4.40;;;2.30;;
57337;SDS011;43173;50.980;18.204;2023-09-19T09:34:55;4.20;;;2.30;;
57337;SDS011;43173;50.980;18.204;2023-09-19T09:37:22;3.90;;;2.60;;
57337;SDS011;43173;50.980;18.204;2023-09-19T09:39:56;6.60;;;2.70;;
57337;SDS011;43173;50.980;18.204;2023-09-19T09:42:42;3.70;;;2.20;;
57337;SDS011;43173;50.980;18.204;2023-09-19T09:45:12;5.40;;;2.70;;
57337;SDS011;43173;50.980;18.204;2023-09-19T09:47:48;6.20;;;2.80;;
57337;SDS011;43173;50.980;18.204;2023-09-19T09:50:31;5.60;;;2.50;;
57337;SDS011;43173;50.980;18.204;2023-09-19T09:58:25;4.20;;;2.40;;
57337;SDS011;43173;50.980;18.204;2023-09-19T10:00:58;5.70;;;2.90;;
57337;SDS011;43173;50.980;18.204;2023-09-19T10:06:12;6.80;;;2.70;;
57337;SDS011;43173;50.980;18.204;2023-09-19T10:14:15;5.70;;;2.40;;
57337;SDS011;43173;50.980;18.204;2023-09-19T10:16:47;11.60;;;2.50;;
57337;SDS011;43173;50.980;18.204;2023-09-19T10:19:56;3.30;;;2.60;;
57337;SDS011;43173;50.980;18.204;2023-09-19T10:22:04;6.90;;;2.80;;
57337;SDS011;43173;50.980;18.204;2023-09-19T10:24:31;4.50;;;2.80;;
57337;SDS011;43173;50.980;18.204;2023-09-19T10:26:59;2.90;;;2.10;;
57337;SDS011;43173;50.980;18.204;2023-09-19T10:29:25;4.60;;;2.40;;
57337;SDS011;43173;50.980;18.204;2023-09-19T10:31:54;6.90;;;2.90;;
57337;SDS011;43173;50.980;18.204;2023-09-19T10:34:20;5.60;;;2.50;;
57337;SDS011;43173;50.980;18.204;2023-09-19T10:36:47;6.80;;;2.80;;
57337;SDS011;43173;50.980;18.204;2023-09-19T10:39:14;4.10;;;2.90;;
57337;SDS011;43173;50.980;18.204;2023-09-19T10:41:51;5.30;;;2.50;;
57337;SDS011;43173;50.980;18.204;2023-09-19T10:44:27;5.90;;;2.50;;
57337;SDS011;43173;50.980;18.204;2023-09-19T10:46:54;7.40;;;2.90;;
57337;SDS011;43173;50.980;18.204;2023-09-19T10:49:20;5.60;;;2.60;;
57337;SDS011;43173;50.980;18.204;2023-09-19T10:51:50;4.30;;;2.50;;
57337;SDS011;43173;50.980;18.204;2023-09-19T10:54:20;5.00;;;2.50;;
57337;SDS011;43173;50.980;18.204;2023-09-19T10:56:52;6.10;;;2.50;;
57337;SDS011;43173;50.980;18.204;2023-09-19T10:59:19;4.40;;;2.30;;
57337;SDS011;43173;50.980;18.204;2023-09-19T11:07:08;5.30;;;2.70;;
57337;SDS011;43173;50.980;18.204;2023-09-19T11:26:47;7.00;;;2.50;;
57337;SDS011;43173;50.980;18.204;2023-09-19T11:31:56;4.00;;;1.90;;
57337;SDS011;43173;50.980;18.204;2023-09-19T11:39:40;4.50;;;2.20;;
57337;SDS011;43173;50.980;18.204;2023-09-19T11:45:06;4.30;;;2.10;;
57337;SDS011;43173;50.980;18.204;2023-09-19T11:47:32;5.00;;;2.10;;
57337;SDS011;43173;50.980;18.204;2023-09-19T11:50:00;3.30;;;2.00;;
57337;SDS011;43173;50.980;18.204;2023-09-19T11:52:27;2.70;;;2.00;;
57337;SDS011;43173;50.980;18.204;2023-09-19T11:54:59;2.70;;;1.90;;
57337;SDS011;43173;50.980;18.204;2023-09-19T11:57:27;2.00;;;1.80;;
57337;SDS011;43173;50.980;18.204;2023-09-19T11:59:55;4.20;;;2.10;;
57337;SDS011;43173;50.980;18.204;2023-09-19T12:02:30;3.10;;;1.90;;
57337;SDS011;43173;50.980;18.204;2023-09-19T12:05:05;4.10;;;1.60;;
57337;SDS011;43173;50.980;18.204;2023-09-19T12:07:30;2.70;;;1.40;;
57337;SDS011;43173;50.980;18.204;2023-09-19T12:12:39;8.10;;;1.60;;
57337;SDS011;43173;50.980;18.204;2023-09-19T12:15:08;7.40;;;1.80;;
57337;SDS011;43173;50.980;18.204;2023-09-19T12:17:37;8.10;;;1.70;;
57337;SDS011;43173;50.980;18.204;2023-09-19T12:20:04;10.70;;;1.70;;
57337;SDS011;43173;50.980;18.204;2023-09-19T12:22:40;2.80;;;1.30;;
57337;SDS011;43173;50.980;18.204;2023-09-19T12:25:11;2.60;;;1.20;;
57337;SDS011;43173;50.980;18.204;2023-09-19T12:27:42;1.90;;;1.30;;
57337;SDS011;43173;50.980;18.204;2023-09-19T12:30:12;2.60;;;1.20;;
57337;SDS011;43173;50.980;18.204;2023-09-19T12:32:40;4.20;;;1.30;;
57337;SDS011;43173;50.980;18.204;2023-09-19T12:35:06;3.40;;;1.50;;
57337;SDS011;43173;50.980;18.204;2023-09-19T12:37:51;3.70;;;1.40;;
57337;SDS011;43173;50.980;18.204;2023-09-19T12:40:21;4.80;;;1.40;;
57337;SDS011;43173;50.980;18.204;2023-09-19T12:42:54;3.90;;;1.20;;
57337;SDS011;43173;50.980;18.204;2023-09-19T12:45:36;2.10;;;1.20;;
57337;SDS011;43173;50.980;18.204;2023-09-19T12:53:56;2.20;;;1.30;;
57337;SDS011;43173;50.980;18.204;2023-09-19T12:56:22;1.90;;;1.50;;
57337;SDS011;43173;50.980;18.204;2023-09-19T12:58:52;1.50;;;1.30;;
57337;SDS011;43173;50.980;18.204;2023-09-19T13:01:25;2.90;;;1.50;;
57337;SDS011;43173;50.980;18.204;2023-09-19T13:06:53;2.30;;;1.60;;
57337;SDS011;43173;50.980;18.204;2023-09-19T13:09:20;2.80;;;1.80;;
57337;SDS011;43173;50.980;18.204;2023-09-19T13:11:47;2.40;;;1.20;;
57337;SDS011;43173;50.980;18.204;2023-09-19T13:19:42;3.70;;;1.60;;
57337;SDS011;43173;50.980;18.204;2023-09-19T13:25:12;4.10;;;1.20;;
57337;SDS011;43173;50.980;18.204;2023-09-19T13:27:43;2.80;;;1.40;;
57337;SDS011;43173;50.980;18.204;2023-09-19T13:30:11;3.40;;;1.20;;
57337;SDS011;43173;50.980;18.204;2023-09-19T13:32:37;3.30;;;1.30;;
57337;SDS011;43173;50.980;18.204;2023-09-19T13:35:04;1.60;;;1.20;;
57337;SDS011;43173;50.980;18.204;2023-09-19T13:37:34;3.50;;;1.30;;
57337;SDS011;43173;50.980;18.204;2023-09-19T13:40:09;1.00;;;0.80;;
57337;SDS011;43173;50.980;18.204;2023-09-19T13:42:36;1.50;;;1.00;;
57337;SDS011;43173;50.980;18.204;2023-09-19T13:45:02;3.00;;;1.20;;
57337;SDS011;43173;50.980;18.204;2023-09-19T13:47:30;3.00;;;1.20;;
57337;SDS011;43173;50.980;18.204;2023-09-19T13:49:56;3.70;;;1.10;;
57337;SDS011;43173;50.980;18.204;2023-09-19T13:52:22;2.80;;;1.30;;
57337;SDS011;43173;50.980;18.204;2023-09-19T13:54:50;2.70;;;1.00;;
57337;SDS011;43173;50.980;18.204;2023-09-19T13:57:16;2.20;;;1.10;;
57337;SDS011;43173;50.980;18.204;2023-09-19T13:59:42;2.60;;;1.30;;
57337;SDS011;43173;50.980;18.204;2023-09-19T14:02:07;2.60;;;1.20;;
57337;SDS011;43173;50.980;18.204;2023-09-19T14:04:33;2.00;;;1.10;;
57337;SDS011;43173;50.980;18.204;2023-09-19T14:07:02;3.80;;;1.10;;
57337;SDS011;43173;50.980;18.204;2023-09-19T14:09:28;2.40;;;1.00;;
57337;SDS011;43173;50.980;18.204;2023-09-19T14:11:54;1.90;;;1.10;;
57337;SDS011;43173;50.980;18.204;2023-09-19T14:14:20;2.80;;;1.10;;
57337;SDS011;43173;50.980;18.204;2023-09-19T14:16:46;1.20;;;1.00;;
57337;SDS011;43173;50.980;18.204;2023-09-19T14:19:13;1.20;;;1.00;;
57337;SDS011;43173;50.980;18.204;2023-09-19T14:21:41;1.80;;;1.10;;
57337;SDS011;43173;50.980;18.204;2023-09-19T14:24:07;1.70;;;1.00;;
57337;SDS011;43173;50.980;18.204;2023-09-19T14:26:40;2.00;;;1.10;;
57337;SDS011;43173;50.980;18.204;2023-09-19T14:29:06;2.80;;;1.10;;
57337;SDS011;43173;50.980;18.204;2023-09-19T14:31:33;1.10;;;0.90;;
57337;SDS011;43173;50.980;18.204;2023-09-19T14:33:59;1.10;;;1.00;;
57337;SDS011;43173;50.980;18.204;2023-09-19T14:36:25;1.50;;;1.10;;
57337;SDS011;43173;50.980;18.204;2023-09-19T14:38:55;3.00;;;1.00;;
57337;SDS011;43173;50.980;18.204;2023-09-19T14:41:22;1.90;;;1.40;;
57337;SDS011;43173;50.980;18.204;2023-09-19T14:43:54;2.60;;;1.20;;
57337;SDS011;43173;50.980;18.204;2023-09-19T14:46:22;1.90;;;1.20;;
57337;SDS011;43173;50.980;18.204;2023-09-19T14:48:53;1.80;;;1.20;;
57337;SDS011;43173;50.980;18.204;2023-09-19T14:51:18;2.20;;;1.20;;
57337;SDS011;43173;50.980;18.204;2023-09-19T14:53:44;2.80;;;1.00;;
57337;SDS011;43173;50.980;18.204;2023-09-19T14:56:11;2.70;;;1.30;;
57337;SDS011;43173;50.980;18.204;2023-09-19T14:58:37;3.30;;;1.20;;
57337;SDS011;43173;50.980;18.204;2023-09-19T15:03:33;5.70;;;1.30;;
57337;SDS011;43173;50.980;18.204;2023-09-19T15:06:04;1.50;;;1.10;;
57337;SDS011;43173;50.980;18.204;2023-09-19T15:08:34;1.70;;;1.00;;
57337;SDS011;43173;50.980;18.204;2023-09-19T15:11:11;1.80;;;1.00;;
57337;SDS011;43173;50.980;18.204;2023-09-19T15:13:38;2.60;;;1.30;;
57337;SDS011;43173;50.980;18.204;2023-09-19T15:16:04;1.60;;;1.10;;
57337;SDS011;43173;50.980;18.204;2023-09-19T15:18:34;2.40;;;1.10;;
57337;SDS011;43173;50.980;18.204;2023-09-19T15:21:06;1.40;;;1.00;;
57337;SDS011;43173;50.980;18.204;2023-09-19T15:23:36;2.60;;;1.10;;
57337;SDS011;43173;50.980;18.204;2023-09-19T15:26:03;1.90;;;1.30;;
57337;SDS011;43173;50.980;18.204;2023-09-19T15:28:30;2.90;;;1.10;;
57337;SDS011;43173;50.980;18.204;2023-09-19T15:31:00;1.90;;;1.10;;
57337;SDS011;43173;50.980;18.204;2023-09-19T15:33:27;2.20;;;1.10;;
57337;SDS011;43173;50.980;18.204;2023-09-19T15:38:29;1.80;;;1.20;;
57337;SDS011;43173;50.980;18.204;2023-09-19T15:40:59;1.70;;;1.10;;
57337;SDS011;43173;50.980;18.204;2023-09-19T15:43:25;2.80;;;1.10;;
57337;SDS011;43173;50.980;18.204;2023-09-19T15:45:51;1.60;;;1.20;;
57337;SDS011;43173;50.980;18.204;2023-09-19T15:48:17;2.80;;;1.10;;
57337;SDS011;43173;50.980;18.204;2023-09-19T15:50:43;3.00;;;1.40;;
57337;SDS011;43173;50.980;18.204;2023-09-19T15:53:10;3.10;;;1.60;;
57337;SDS011;43173;50.980;18.204;2023-09-19T15:55:40;1.70;;;1.40;;
57337;SDS011;43173;50.980;18.204;2023-09-19T15:58:06;2.00;;;1.10;;
57337;SDS011;43173;50.980;18.204;2023-09-19T16:00:32;4.90;;;1.30;;
57337;SDS011;43173;50.980;18.204;2023-09-19T16:03:02;3.70;;;1.10;;
57337;SDS011;43173;50.980;18.204;2023-09-19T16:05:28;2.90;;;1.50;;
57337;SDS011;43173;50.980;18.204;2023-09-19T16:08:05;3.40;;;1.20;;
57337;SDS011;43173;50.980;18.204;2023-09-19T16:10:35;2.50;;;1.20;;
57337;SDS011;43173;50.980;18.204;2023-09-19T16:13:03;5.00;;;1.50;;
57337;SDS011;43173;50.980;18.204;2023-09-19T16:15:29;4.70;;;1.60;;
57337;SDS011;43173;50.980;18.204;2023-09-19T16:17:55;4.20;;;1.30;;
57337;SDS011;43173;50.980;18.204;2023-09-19T16:20:20;5.40;;;1.60;;